Time;durP1;ratioP1;P1;durP2;ratioP2;P2;SDS_P1;SDS_P2;PMS_P1;PMS_P2;Temp;Humidity;BMP_temperature;BMP_pressure;BME280_temperature;BME280_humidity;BME280_pressure;Samples;Min_cycle;Max_cycle;Signal;HPM_P1;HPM_P2
2024/04/02 00:00:52;;;;;;;0.57;0.57;;;;;;;;;;5042448;28;20037;-77
2024/04/02 00:03:18;;;;;;;0.10;0.10;;;;;;;;;;5039054;28;20119;-78
2024/04/02 00:05:44;;;;;;;0.28;0.20;;;;;;;;;;5030904;28;20033;-78
2024/04/02 00:08:10;;;;;;;0.28;0.15;;;;;;;;;;5009204;28;20528;-79
2024/04/02 00:10:37;;;;;;;0.45;0.25;;;;;;;;;;5038816;28;20021;-78
2024/04/02 00:13:06;;;;;;;0.47;0.20;;;;;;;;;;5021920;28;20021;-77
2024/04/02 00:15:32;;;;;;;0.13;0.05;;;;;;;;;;5039227;28;20054;-77
2024/04/02 00:17:59;;;;;;;0.15;0.03;;;;;;;;;;5046695;28;20095;-78
2024/04/02 00:20:25;;;;;;;0.10;0.10;;;;;;;;;;5050099;28;20037;-77
2024/04/02 00:22:52;;;;;;;0.63;0.20;;;;;;;;;;5049644;28;20034;-77
2024/04/02 00:25:18;;;;;;;0.50;0.10;;;;;;;;;;5037351;28;20032;-78
2024/04/02 00:27:44;;;;;;;0.10;0.10;;;;;;;;;;5037014;28;20025;-77
2024/04/02 00:30:12;;;;;;;0.10;0.10;;;;;;;;;;5038149;28;20063;-78
2024/04/02 00:32:41;;;;;;;0.45;0.05;;;;;;;;;;5038136;28;20025;-77
2024/04/02 00:35:08;;;;;;;1.05;0.10;;;;;;;;;;5038055;28;20066;-77
2024/04/02 00:37:34;;;;;;;0.17;0.17;;;;;;;;;;5031835;28;20039;-78
2024/04/02 00:40:00;;;;;;;0.20;0.10;;;;;;;;;;5032394;28;20066;-77
2024/04/02 00:42:27;;;;;;;0.20;0.13;;;;;;;;;;5037424;28;20057;-78
2024/04/02 00:44:53;;;;;;;0.10;0.10;;;;;;;;;;5027658;28;20495;-77
2024/04/02 00:47:19;;;;;;;0.43;0.10;;;;;;;;;;5033181;28;20083;-77
2024/04/02 00:49:46;;;;;;;0.10;0.10;;;;;;;;;;5039666;28;20045;-77
2024/04/02 00:52:12;;;;;;;0.10;0.10;;;;;;;;;;5036781;28;20031;-77
2024/04/02 00:54:38;;;;;;;0.10;0.10;;;;;;;;;;5047731;28;20458;-77
2024/04/02 00:57:04;;;;;;;0.10;0.00;;;;;;;;;;5043777;28;20104;-76
2024/04/02 00:59:32;;;;;;;1.48;0.20;;;;;;;;;;5039915;28;20192;-77
2024/04/02 01:01:59;;;;;;;0.35;0.10;;;;;;;;;;5037823;28;20029;-76
2024/04/02 01:04:25;;;;;;;0.57;0.10;;;;;;;;;;5046345;28;20025;-77
2024/04/02 01:06:51;;;;;;;0.10;0.10;;;;;;;;;;5043768;28;20032;-78
2024/04/02 01:09:18;;;;;;;0.10;0.10;;;;;;;;;;5034438;28;20021;-78
2024/04/02 01:11:46;;;;;;;0.10;0.10;;;;;;;;;;5030420;28;20052;-77
2024/04/02 01:14:12;;;;;;;0.13;0.10;;;;;;;;;;5037025;28;20499;-78
2024/04/02 01:16:42;;;;;;;0.00;0.00;;;;;;;;;;5040952;28;20341;-78
2024/04/02 01:19:08;;;;;;;0.10;0.10;;;;;;;;;;5042484;28;20073;-78
2024/04/02 01:21:34;;;;;;;0.32;0.10;;;;;;;;;;5038684;28;20072;-77
2024/04/02 01:24:00;;;;;;;0.17;0.17;;;;;;;;;;5037438;28;20056;-78
2024/04/02 01:26:26;;;;;;;0.10;0.10;;;;;;;;;;5043830;28;20476;-77
2024/04/02 01:28:58;;;;;;;0.47;0.10;;;;;;;;;;5034544;28;20021;-77
2024/04/02 01:31:27;;;;;;;0.40;0.30;;;;;;;;;;5037910;28;20052;-77
2024/04/02 01:33:53;;;;;;;0.25;0.10;;;;;;;;;;5034344;28;20036;-77
2024/04/02 01:36:19;;;;;;;0.00;0.00;;;;;;;;;;5036092;28;20083;-78
2024/04/02 01:38:45;;;;;;;0.80;0.10;;;;;;;;;;5035991;28;20033;-78
2024/04/02 01:41:12;;;;;;;0.30;0.10;;;;;;;;;;5035786;28;20069;-78
2024/04/02 01:43:38;;;;;;;0.35;0.10;;;;;;;;;;5021352;28;20124;-78
2024/04/02 01:46:04;;;;;;;0.10;0.10;;;;;;;;;;5047050;28;20025;-78
2024/04/02 01:48:30;;;;;;;0.50;0.20;;;;;;;;;;5035601;28;20032;-78
2024/04/02 01:50:56;;;;;;;0.22;0.10;;;;;;;;;;5035980;28;20033;-78
2024/04/02 01:53:22;;;;;;;0.17;0.17;;;;;;;;;;5034441;28;20452;-78
2024/04/02 01:55:48;;;;;;;0.68;0.10;;;;;;;;;;5035763;28;20034;-78
2024/04/02 01:58:15;;;;;;;0.00;0.00;;;;;;;;;;5035644;28;20049;-78
2024/04/02 02:00:41;;;;;;;0.28;0.20;;;;;;;;;;5035150;28;20033;-78
2024/04/02 02:03:07;;;;;;;0.47;0.20;;;;;;;;;;5035659;28;20025;-78
2024/04/02 02:05:33;;;;;;;0.10;0.10;;;;;;;;;;5031638;28;20013;-78
2024/04/02 02:07:59;;;;;;;0.20;0.20;;;;;;;;;;5035402;28;20041;-78
2024/04/02 02:10:25;;;;;;;0.15;0.10;;;;;;;;;;5035743;28;20029;-78
2024/04/02 02:12:51;;;;;;;0.20;0.20;;;;;;;;;;5036320;28;20044;-78
2024/04/02 02:15:18;;;;;;;0.00;0.00;;;;;;;;;;5017287;28;20022;-78
2024/04/02 02:17:47;;;;;;;0.43;0.10;;;;;;;;;;5036784;28;20376;-78
2024/04/02 02:20:14;;;;;;;0.10;0.10;;;;;;;;;;5021243;28;20028;-78
2024/04/02 02:22:41;;;;;;;0.10;0.10;;;;;;;;;;5035238;28;20040;-78
2024/04/02 02:25:07;;;;;;;0.10;0.10;;;;;;;;;;5035134;28;20488;-78
2024/04/02 02:27:33;;;;;;;0.20;0.20;;;;;;;;;;5018527;28;20033;-78
2024/04/02 02:29:59;;;;;;;0.80;0.30;;;;;;;;;;5035085;28;20025;-79
2024/04/02 02:32:25;;;;;;;0.40;0.00;;;;;;;;;;5018436;28;20028;-78
2024/04/02 02:34:51;;;;;;;0.40;0.20;;;;;;;;;;5017114;28;20072;-78
2024/04/02 02:37:18;;;;;;;0.10;0.10;;;;;;;;;;5033757;28;20159;-77
2024/04/02 02:39:44;;;;;;;0.13;0.13;;;;;;;;;;5008489;28;20021;-77
2024/04/02 02:42:10;;;;;;;0.00;0.00;;;;;;;;;;5028994;28;20444;-78
2024/04/02 02:44:36;;;;;;;0.32;0.20;;;;;;;;;;5035943;28;20025;-77
2024/04/02 02:47:04;;;;;;;0.10;0.10;;;;;;;;;;5035239;28;20049;-78
2024/04/02 02:49:30;;;;;;;0.55;0.15;;;;;;;;;;5014623;28;20025;-78
2024/04/02 02:51:56;;;;;;;0.00;0.00;;;;;;;;;;5036686;28;20589;-78
2024/04/02 02:54:23;;;;;;;0.47;0.10;;;;;;;;;;5036731;28;20029;-77
2024/04/02 02:56:49;;;;;;;0.00;0.00;;;;;;;;;;5034688;28;20078;-78
2024/04/02 02:59:15;;;;;;;0.20;0.17;;;;;;;;;;5036935;28;20076;-78
2024/04/02 03:01:41;;;;;;;0.45;0.22;;;;;;;;;;5035879;28;20065;-78
2024/04/02 03:04:07;;;;;;;0.80;0.10;;;;;;;;;;5038947;28;20025;-77
2024/04/02 03:06:34;;;;;;;0.15;0.15;;;;;;;;;;5027880;28;20329;-78
2024/04/02 03:09:00;;;;;;;0.30;0.20;;;;;;;;;;5034762;28;20017;-78
2024/04/02 03:11:26;;;;;;;0.08;0.08;;;;;;;;;;5031198;28;20017;-78
2024/04/02 03:13:52;;;;;;;0.28;0.20;;;;;;;;;;5030176;28;20384;-78
2024/04/02 03:16:21;;;;;;;0.10;0.10;;;;;;;;;;5027757;28;20072;-79
2024/04/02 03:18:47;;;;;;;0.00;0.00;;;;;;;;;;5033409;28;20528;-79
2024/04/02 03:21:14;;;;;;;0.08;0.08;;;;;;;;;;5029529;28;20026;-79
2024/04/02 03:23:41;;;;;;;0.28;0.10;;;;;;;;;;5015701;28;20034;-79
2024/04/02 03:26:07;;;;;;;0.10;0.10;;;;;;;;;;5013026;28;20034;-77
2024/04/02 03:28:34;;;;;;;0.55;0.13;;;;;;;;;;5043339;28;20030;-79
2024/04/02 03:31:01;;;;;;;2.00;0.17;;;;;;;;;;5038011;28;20073;-77
2024/04/02 03:33:27;;;;;;;0.17;0.17;;;;;;;;;;5037219;28;20060;-77
2024/04/02 03:35:54;;;;;;;0.30;0.10;;;;;;;;;;5043029;28;20091;-80
2024/04/02 03:38:20;;;;;;;0.22;0.17;;;;;;;;;;5032051;28;20023;-78
2024/04/02 03:40:48;;;;;;;0.43;0.15;;;;;;;;;;5030228;28;20070;-79
2024/04/02 03:43:14;;;;;;;0.17;0.10;;;;;;;;;;5011997;28;20025;-79
2024/04/02 03:45:43;;;;;;;0.10;0.10;;;;;;;;;;5035851;28;20092;-78
2024/04/02 03:48:09;;;;;;;0.10;0.10;;;;;;;;;;5021725;28;20033;-78
2024/04/02 03:50:36;;;;;;;0.47;0.20;;;;;;;;;;5033782;28;20021;-79
2024/04/02 03:53:02;;;;;;;0.10;0.10;;;;;;;;;;5036433;28;20026;-80
2024/04/02 03:55:33;;;;;;;0.10;0.10;;;;;;;;;;5036265;28;20021;-79
2024/04/02 03:57:59;;;;;;;0.20;0.10;;;;;;;;;;5028529;28;20414;-80
2024/04/02 04:00:25;;;;;;;0.10;0.00;;;;;;;;;;5036037;28;20122;-78
2024/04/02 04:02:51;;;;;;;0.10;0.10;;;;;;;;;;5034039;28;20037;-78
2024/04/02 04:05:17;;;;;;;0.28;0.10;;;;;;;;;;5037602;28;20077;-77
2024/04/02 04:07:44;;;;;;;0.17;0.10;;;;;;;;;;5044445;28;20022;-77
2024/04/02 04:10:10;;;;;;;0.10;0.10;;;;;;;;;;5039535;28;20093;-78
2024/04/02 04:12:36;;;;;;;0.45;0.10;;;;;;;;;;5045326;28;20041;-78
2024/04/02 04:15:02;;;;;;;0.05;0.03;;;;;;;;;;5053794;28;20052;-79
2024/04/02 04:17:28;;;;;;;0.05;0.05;;;;;;;;;;5032188;28;20045;-79
2024/04/02 04:19:54;;;;;;;0.10;0.10;;;;;;;;;;5022994;28;20036;-80
2024/04/02 04:22:20;;;;;;;0.20;0.13;;;;;;;;;;5032536;28;20491;-79
2024/04/02 04:24:47;;;;;;;1.65;0.10;;;;;;;;;;5039138;28;20376;-79
2024/04/02 04:27:13;;;;;;;0.75;0.20;;;;;;;;;;5039181;28;20052;-79
2024/04/02 04:29:39;;;;;;;0.40;0.10;;;;;;;;;;5036527;28;20045;-78
2024/04/02 04:32:05;;;;;;;0.10;0.10;;;;;;;;;;5033034;28;20018;-78
2024/04/02 04:34:31;;;;;;;0.10;0.10;;;;;;;;;;5043862;28;20029;-78
2024/04/02 04:36:57;;;;;;;0.52;0.20;;;;;;;;;;5038797;28;20097;-81
2024/04/02 04:39:23;;;;;;;0.73;0.20;;;;;;;;;;5020765;28;20120;-80
2024/04/02 04:41:49;;;;;;;0.47;0.20;;;;;;;;;;5021205;28;20029;-80
2024/04/02 04:44:15;;;;;;;0.25;0.25;;;;;;;;;;5016030;28;20080;-80
2024/04/02 04:46:41;;;;;;;0.10;0.10;;;;;;;;;;5040169;28;20057;-81
2024/04/02 04:49:08;;;;;;;0.95;0.20;;;;;;;;;;5036661;28;20102;-79
2024/04/02 04:51:34;;;;;;;0.65;0.38;;;;;;;;;;5037685;28;20081;-79
2024/04/02 04:54:00;;;;;;;0.90;0.25;;;;;;;;;;5019391;28;20025;-80
2024/04/02 04:56:26;;;;;;;0.30;0.20;;;;;;;;;;5007635;28;20508;-80
2024/04/02 04:58:52;;;;;;;0.80;0.20;;;;;;;;;;5030852;28;20026;-80
2024/04/02 05:01:21;;;;;;;0.43;0.10;;;;;;;;;;5031764;28;20045;-80
2024/04/02 05:03:47;;;;;;;0.35;0.13;;;;;;;;;;5053494;28;20053;-78
2024/04/02 05:06:13;;;;;;;0.32;0.20;;;;;;;;;;5044027;28;20040;-78
2024/04/02 05:08:39;;;;;;;0.10;0.10;;;;;;;;;;5031495;28;20481;-80
2024/04/02 05:11:06;;;;;;;0.20;0.15;;;;;;;;;;5002594;28;20128;-78
2024/04/02 05:13:33;;;;;;;0.10;0.10;;;;;;;;;;5019132;28;20025;-80
2024/04/02 05:15:59;;;;;;;0.28;0.15;;;;;;;;;;5042728;28;20095;-80
2024/04/02 05:18:25;;;;;;;0.15;0.13;;;;;;;;;;5023681;28;20026;-79
2024/04/02 05:20:52;;;;;;;0.10;0.10;;;;;;;;;;5021758;28;20468;-80
2024/04/02 05:23:18;;;;;;;0.10;0.10;;;;;;;;;;5021777;28;20028;-80
2024/04/02 05:25:44;;;;;;;0.30;0.25;;;;;;;;;;5021279;28;20076;-79
2024/04/02 05:28:10;;;;;;;0.22;0.22;;;;;;;;;;5035988;28;20399;-80
2024/04/02 05:30:36;;;;;;;0.10;0.10;;;;;;;;;;5041204;28;20018;-80
2024/04/02 05:33:03;;;;;;;0.80;0.30;;;;;;;;;;5039250;28;20057;-79
2024/04/02 05:35:30;;;;;;;0.30;0.20;;;;;;;;;;5030780;28;20026;-79
2024/04/02 05:37:56;;;;;;;0.17;0.13;;;;;;;;;;5022299;28;20055;-78
2024/04/02 05:40:22;;;;;;;0.32;0.20;;;;;;;;;;5043192;28;20104;-80
2024/04/02 05:42:49;;;;;;;0.40;0.10;;;;;;;;;;5039366;28;20081;-79
2024/04/02 05:45:15;;;;;;;0.20;0.10;;;;;;;;;;5039639;28;20416;-79
2024/04/02 05:47:42;;;;;;;0.20;0.20;;;;;;;;;;5031943;28;20391;-78
2024/04/02 05:50:09;;;;;;;0.20;0.20;;;;;;;;;;5039559;28;20060;-80
2024/04/02 05:52:35;;;;;;;0.10;0.10;;;;;;;;;;5040076;28;20049;-79
2024/04/02 05:55:02;;;;;;;0.30;0.20;;;;;;;;;;5029306;28;20061;-79
2024/04/02 05:57:28;;;;;;;3.00;0.32;;;;;;;;;;5026555;28;20454;-79
2024/04/02 05:59:54;;;;;;;0.38;0.20;;;;;;;;;;5037797;28;20026;-77
2024/04/02 06:02:20;;;;;;;0.17;0.10;;;;;;;;;;5031257;28;20032;-80
2024/04/02 06:04:47;;;;;;;1.00;0.40;;;;;;;;;;5014037;28;20031;-79
2024/04/02 06:07:13;;;;;;;0.35;0.30;;;;;;;;;;5032614;28;20072;-79
2024/04/02 06:09:39;;;;;;;2.50;0.13;;;;;;;;;;5040150;28;20022;-78
2024/04/02 06:12:06;;;;;;;0.20;0.10;;;;;;;;;;5019524;28;20026;-79
2024/04/02 06:14:32;;;;;;;0.30;0.20;;;;;;;;;;5039391;28;20101;-79
2024/04/02 06:17:02;;;;;;;0.10;0.10;;;;;;;;;;5008661;28;20041;-79
2024/04/02 06:19:28;;;;;;;0.20;0.10;;;;;;;;;;5024865;28;20022;-80
2024/04/02 06:21:55;;;;;;;0.10;0.10;;;;;;;;;;5012591;28;20049;-80
2024/04/02 06:24:22;;;;;;;1.20;0.22;;;;;;;;;;5039959;28;20025;-80
2024/04/02 06:26:48;;;;;;;0.20;0.20;;;;;;;;;;5022778;28;20032;-80
2024/04/02 06:29:14;;;;;;;0.98;0.20;;;;;;;;;;5040446;28;20037;-78
2024/04/02 06:31:40;;;;;;;0.00;0.00;;;;;;;;;;5020912;28;20026;-79
2024/04/02 06:34:06;;;;;;;0.15;0.10;;;;;;;;;;5014257;28;20140;-79
2024/04/02 06:36:32;;;;;;;0.35;0.10;;;;;;;;;;5033327;28;20049;-78
2024/04/02 06:38:58;;;;;;;0.63;0.30;;;;;;;;;;5035991;28;20029;-79
2024/04/02 06:41:25;;;;;;;0.82;0.30;;;;;;;;;;5040443;28;20471;-80
2024/04/02 06:43:51;;;;;;;0.45;0.20;;;;;;;;;;5044770;28;20033;-79
2024/04/02 06:46:24;;;;;;;4.32;0.30;;;;;;;;;;5046978;28;20025;-79
2024/04/02 06:48:50;;;;;;;0.05;0.05;;;;;;;;;;5037912;28;20034;-79
2024/04/02 06:51:16;;;;;;;1.75;0.10;;;;;;;;;;5055487;28;20009;-80
2024/04/02 06:53:42;;;;;;;0.50;0.30;;;;;;;;;;5038890;28;20029;-80
2024/04/02 06:56:08;;;;;;;0.40;0.22;;;;;;;;;;5037251;28;20014;-79
2024/04/02 06:58:35;;;;;;;0.25;0.25;;;;;;;;;;5055367;28;20010;-79
2024/04/02 07:01:01;;;;;;;1.02;0.20;;;;;;;;;;5051033;28;20029;-80
2024/04/02 07:03:27;;;;;;;0.17;0.10;;;;;;;;;;5029474;28;20056;-78
2024/04/02 07:05:54;;;;;;;0.38;0.30;;;;;;;;;;5054738;28;20025;-79
2024/04/02 07:08:25;;;;;;;2.90;0.13;;;;;;;;;;5037332;28;20029;-80
2024/04/02 07:10:59;;;;;;;0.55;0.20;;;;;;;;;;5055070;28;20013;-80
2024/04/02 07:13:25;;;;;;;0.40;0.17;;;;;;;;;;5038856;28;20021;-81
2024/04/02 07:15:52;;;;;;;0.55;0.13;;;;;;;;;;5008428;28;20022;-81
2024/04/02 07:18:18;;;;;;;0.10;0.10;;;;;;;;;;5036588;28;20040;-80
2024/04/02 07:20:45;;;;;;;0.10;0.10;;;;;;;;;;5042130;28;20037;-80
2024/04/02 07:23:14;;;;;;;0.20;0.20;;;;;;;;;;5042568;28;20085;-81
2024/04/02 07:25:40;;;;;;;1.33;0.20;;;;;;;;;;5043316;28;20026;-82
2024/04/02 07:28:06;;;;;;;0.17;0.17;;;;;;;;;;5023317;28;20045;-80
2024/04/02 07:30:32;;;;;;;0.08;0.08;;;;;;;;;;5023572;28;20113;-80
2024/04/02 07:32:58;;;;;;;0.63;0.10;;;;;;;;;;5005297;28;20026;-81
2024/04/02 07:35:24;;;;;;;0.90;0.30;;;;;;;;;;5032583;28;20444;-81
2024/04/02 07:37:51;;;;;;;0.45;0.25;;;;;;;;;;5014384;28;20079;-81
2024/04/02 07:40:17;;;;;;;0.60;0.45;;;;;;;;;;5018065;28;20022;-80
2024/04/02 07:42:43;;;;;;;2.38;0.63;;;;;;;;;;5029665;28;20050;-81
2024/04/02 07:45:15;;;;;;;2.65;0.85;;;;;;;;;;5026205;28;20014;-80
2024/04/02 07:47:42;;;;;;;1.30;0.47;;;;;;;;;;5024012;28;20056;-80
2024/04/02 07:50:09;;;;;;;1.00;0.30;;;;;;;;;;5027702;28;20507;-79
2024/04/02 07:52:38;;;;;;;1.15;0.20;;;;;;;;;;5025547;28;20052;-82
2024/04/02 07:55:06;;;;;;;0.10;0.10;;;;;;;;;;5044620;28;20056;-80
2024/04/02 07:57:33;;;;;;;0.65;0.30;;;;;;;;;;5045096;28;20046;-81
2024/04/02 08:00:01;;;;;;;0.10;0.10;;;;;;;;;;5035008;28;20060;-80
2024/04/02 08:02:28;;;;;;;0.63;0.20;;;;;;;;;;5037016;28;20105;-81
2024/04/02 08:04:54;;;;;;;0.30;0.30;;;;;;;;;;5034052;28;20048;-80
2024/04/02 08:07:21;;;;;;;0.40;0.35;;;;;;;;;;5041407;28;20021;-79
2024/04/02 08:09:47;;;;;;;0.68;0.20;;;;;;;;;;5059515;28;20093;-80
2024/04/02 08:12:13;;;;;;;0.17;0.17;;;;;;;;;;5051029;28;20014;-80
2024/04/02 08:14:40;;;;;;;0.15;0.13;;;;;;;;;;5053303;28;20037;-82
2024/04/02 08:17:06;;;;;;;0.20;0.20;;;;;;;;;;5044528;28;20088;-81
2024/04/02 08:19:32;;;;;;;0.38;0.20;;;;;;;;;;5025569;28;20021;-81
2024/04/02 08:21:58;;;;;;;0.35;0.35;;;;;;;;;;5027426;28;20026;-80
2024/04/02 08:24:25;;;;;;;0.38;0.20;;;;;;;;;;5017877;28;20025;-81
2024/04/02 08:26:51;;;;;;;0.38;0.10;;;;;;;;;;5034840;28;20022;-81
2024/04/02 08:29:17;;;;;;;0.50;0.30;;;;;;;;;;5035870;28;20314;-81
2024/04/02 08:31:44;;;;;;;0.57;0.10;;;;;;;;;;5036224;28;20021;-81
2024/04/02 08:34:10;;;;;;;2.65;0.30;;;;;;;;;;5044449;28;20026;-81
2024/04/02 08:36:37;;;;;;;0.45;0.20;;;;;;;;;;5039527;28;20093;-81
2024/04/02 08:39:04;;;;;;;4.65;0.20;;;;;;;;;;5019748;28;20111;-81
2024/04/02 08:41:30;;;;;;;0.47;0.38;;;;;;;;;;5046446;28;20025;-81
2024/04/02 08:43:59;;;;;;;1.98;0.40;;;;;;;;;;5048413;28;20025;-81
2024/04/02 08:46:26;;;;;;;1.08;0.40;;;;;;;;;;5036945;28;20021;-80
2024/04/02 08:48:56;;;;;;;1.10;0.47;;;;;;;;;;5023711;28;20017;-81
2024/04/02 08:51:23;;;;;;;0.38;0.30;;;;;;;;;;5042054;28;20127;-80
2024/04/02 08:53:49;;;;;;;0.65;0.38;;;;;;;;;;5036074;28;20018;-79
2024/04/02 08:56:16;;;;;;;2.38;0.98;;;;;;;;;;5044252;28;20117;-80
2024/04/02 08:58:43;;;;;;;2.75;0.60;;;;;;;;;;5043809;28;20044;-80
2024/04/02 09:01:12;;;;;;;2.45;0.50;;;;;;;;;;5044316;28;20391;-79
2024/04/02 09:03:39;;;;;;;2.72;0.57;;;;;;;;;;5040335;28;20029;-80
2024/04/02 09:06:05;;;;;;;2.28;0.60;;;;;;;;;;5016765;28;20021;-81
2024/04/02 09:08:42;;;;;;;2.92;0.90;;;;;;;;;;5034992;28;20014;-79
2024/04/02 09:11:08;;;;;;;1.88;0.60;;;;;;;;;;5053730;28;20102;-80
2024/04/02 09:13:34;;;;;;;2.47;0.68;;;;;;;;;;5002676;28;20022;-81
2024/04/02 09:16:00;;;;;;;1.58;0.60;;;;;;;;;;5023697;28;20032;-80
2024/04/02 09:18:32;;;;;;;2.63;0.63;;;;;;;;;;5040525;28;20048;-79
2024/04/02 09:21:00;;;;;;;1.57;0.43;;;;;;;;;;5031183;28;20029;-81
2024/04/02 09:23:29;;;;;;;1.00;0.55;;;;;;;;;;5032864;28;20065;-80
2024/04/02 09:25:55;;;;;;;0.93;0.50;;;;;;;;;;5031613;28;20033;-80
2024/04/02 09:28:21;;;;;;;3.03;0.60;;;;;;;;;;5041802;28;20026;-79
2024/04/02 09:30:47;;;;;;;2.63;0.52;;;;;;;;;;5027525;28;20053;-80
2024/04/02 09:33:18;;;;;;;1.23;0.52;;;;;;;;;;5049445;28;20025;-80
2024/04/02 09:35:56;;;;;;;2.03;0.70;;;;;;;;;;5040347;28;20026;-80
2024/04/02 09:38:23;;;;;;;2.92;0.90;;;;;;;;;;5038941;28;20049;-80
2024/04/02 09:40:50;;;;;;;2.25;0.68;;;;;;;;;;5031628;28;20052;-80
2024/04/02 09:43:17;;;;;;;2.05;0.70;;;;;;;;;;5019988;28;20097;-80
2024/04/02 09:45:46;;;;;;;0.80;0.75;;;;;;;;;;5023259;28;20061;-81
2024/04/02 09:48:16;;;;;;;2.88;0.57;;;;;;;;;;5028395;28;20104;-79
2024/04/02 09:50:43;;;;;;;1.85;0.57;;;;;;;;;;5034631;28;20026;-80
2024/04/02 09:53:11;;;;;;;8.65;1.08;;;;;;;;;;5040560;28;20021;-80
2024/04/02 09:55:37;;;;;;;2.08;0.63;;;;;;;;;;5040484;28;20034;-79
2024/04/02 09:58:04;;;;;;;2.60;0.65;;;;;;;;;;5044925;28;20026;-80
2024/04/02 10:00:32;;;;;;;1.35;0.55;;;;;;;;;;5043184;28;20032;-81
2024/04/02 10:03:01;;;;;;;1.20;0.88;;;;;;;;;;5008853;28;20026;-81
2024/04/02 10:05:27;;;;;;;5.03;0.60;;;;;;;;;;5032596;28;20050;-80
2024/04/02 10:07:55;;;;;;;4.80;0.80;;;;;;;;;;5032920;28;20025;-82
2024/04/02 10:10:28;;;;;;;1.27;0.60;;;;;;;;;;5041804;28;20084;-81
2024/04/02 10:12:55;;;;;;;1.60;0.50;;;;;;;;;;5040801;28;20022;-79
2024/04/02 10:15:23;;;;;;;2.88;0.93;;;;;;;;;;5047495;28;20029;-78
2024/04/02 10:17:59;;;;;;;2.28;0.80;;;;;;;;;;5050232;28;20108;-79
2024/04/02 10:20:27;;;;;;;2.42;0.90;;;;;;;;;;5042185;28;20036;-80
2024/04/02 10:22:53;;;;;;;1.83;0.85;;;;;;;;;;5024223;28;20357;-82
2024/04/02 10:25:20;;;;;;;1.05;0.70;;;;;;;;;;5012758;28;20477;-81
2024/04/02 10:27:50;;;;;;;2.15;0.50;;;;;;;;;;5037560;28;20468;-79
2024/04/02 10:30:21;;;;;;;3.47;1.00;;;;;;;;;;5042021;28;20033;-80
2024/04/02 10:32:47;;;;;;;3.20;0.93;;;;;;;;;;5032821;28;20037;-79
2024/04/02 10:35:21;;;;;;;3.03;1.05;;;;;;;;;;5032476;28;20074;-80
2024/04/02 10:37:55;;;;;;;4.38;0.90;;;;;;;;;;5010601;28;20052;-80
2024/04/02 10:40:21;;;;;;;2.25;0.73;;;;;;;;;;5003601;28;20034;-80
2024/04/02 10:42:48;;;;;;;1.90;0.98;;;;;;;;;;5019685;28;20033;-80
2024/04/02 10:45:15;;;;;;;2.25;0.57;;;;;;;;;;5033113;28;20017;-80
2024/04/02 10:48:01;;;;;;;0.75;0.30;;;;;;;;;;5036279;28;20380;-80
2024/04/02 10:50:28;;;;;;;3.05;1.10;;;;;;;;;;5015689;28;20022;-79
2024/04/02 10:52:54;;;;;;;2.25;0.57;;;;;;;;;;5031766;28;20029;-80
2024/04/02 10:55:20;;;;;;;1.33;0.60;;;;;;;;;;5009463;28;20076;-79
2024/04/02 10:57:46;;;;;;;1.83;0.70;;;;;;;;;;5026064;28;20481;-80
2024/04/02 11:00:15;;;;;;;0.90;0.50;;;;;;;;;;5023491;28;20104;-80
2024/04/02 11:02:42;;;;;;;0.90;0.50;;;;;;;;;;5040271;28;20125;-80
2024/04/02 11:05:12;;;;;;;2.03;1.10;;;;;;;;;;5034157;28;20033;-81
2024/04/02 11:07:38;;;;;;;1.60;0.50;;;;;;;;;;5026695;28;20056;-80
2024/04/02 11:10:04;;;;;;;1.65;0.60;;;;;;;;;;5029156;28;20037;-80
2024/04/02 11:12:31;;;;;;;1.60;0.68;;;;;;;;;;5043806;28;20057;-79
2024/04/02 11:14:58;;;;;;;2.83;0.70;;;;;;;;;;5019190;28;20025;-79
2024/04/02 11:17:24;;;;;;;1.77;0.50;;;;;;;;;;5035887;28;20017;-80
2024/04/02 11:19:51;;;;;;;3.50;0.50;;;;;;;;;;5031452;28;20452;-81
2024/04/02 11:25:12;;;;;;;2.65;0.88;;;;;;;;;;5045373;28;20074;-79
2024/04/02 11:27:39;;;;;;;1.55;0.57;;;;;;;;;;5018074;28;20032;-80
2024/04/02 11:30:05;;;;;;;2.78;0.75;;;;;;;;;;5022987;28;20108;-80
2024/04/02 11:32:32;;;;;;;2.13;0.52;;;;;;;;;;5039972;28;20169;-81
2024/04/02 11:35:04;;;;;;;1.73;0.57;;;;;;;;;;5019987;28;20029;-79
2024/04/02 11:37:30;;;;;;;;;;;;;;;;;;5033154;28;20025;-80
2024/04/02 11:39:56;;;;;;;1.05;0.50;;;;;;;;;;5040628;28;19973;-80
2024/04/02 11:42:23;;;;;;;2.83;1.02;;;;;;;;;;5021735;28;20333;-80
2024/04/02 11:44:50;;;;;;;3.40;0.52;;;;;;;;;;5036582;28;20072;-79
2024/04/02 11:47:17;;;;;;;1.58;0.68;;;;;;;;;;5044611;28;20077;-80
2024/04/02 11:49:43;;;;;;;1.83;0.70;;;;;;;;;;5026236;28;20049;-80
2024/04/02 11:52:09;;;;;;;0.77;0.55;;;;;;;;;;5026330;28;20041;-80
2024/04/02 11:54:36;;;;;;;2.97;0.60;;;;;;;;;;5036622;28;20101;-79
2024/04/02 12:02:37;;;;;;;1.05;0.55;;;;;;;;;;5023971;28;20101;-80
2024/04/02 12:05:03;;;;;;;2.65;0.70;;;;;;;;;;5042410;28;20036;-80
2024/04/02 12:07:29;;;;;;;0.98;0.47;;;;;;;;;;5039537;28;20022;-80
2024/04/02 12:09:56;;;;;;;0.60;0.50;;;;;;;;;;5041307;28;20022;-80
2024/04/02 12:12:26;;;;;;;1.25;0.50;;;;;;;;;;5027593;28;20025;-81
2024/04/02 12:14:52;;;;;;;1.20;0.50;;;;;;;;;;5043111;28;20030;-80
2024/04/02 12:17:21;;;;;;;1.83;0.60;;;;;;;;;;5035735;28;20157;-80
2024/04/02 12:19:47;;;;;;;0.50;0.50;;;;;;;;;;5034722;28;20037;-80
2024/04/02 12:22:13;;;;;;;1.55;0.50;;;;;;;;;;5052198;28;20027;-79
2024/04/02 12:24:39;;;;;;;1.48;0.50;;;;;;;;;;5043117;28;20076;-80
2024/04/02 12:27:06;;;;;;;4.25;0.40;;;;;;;;;;5030593;28;20495;-80
2024/04/02 12:29:33;;;;;;;5.75;0.60;;;;;;;;;;5046419;28;20022;-80
2024/04/02 12:31:59;;;;;;;2.05;0.60;;;;;;;;;;5040339;28;20632;-79
2024/04/02 12:34:26;;;;;;;4.00;0.60;;;;;;;;;;5015805;28;20070;-80
2024/04/02 12:36:55;;;;;;;1.08;0.40;;;;;;;;;;5015377;28;20041;-80
2024/04/02 12:39:21;;;;;;;2.60;0.40;;;;;;;;;;5019610;28;20097;-79
2024/04/02 12:41:48;;;;;;;1.17;0.38;;;;;;;;;;5024628;28;20022;-81
2024/04/02 12:44:14;;;;;;;1.85;0.40;;;;;;;;;;5016614;28;20114;-80
2024/04/02 12:46:41;;;;;;;2.85;0.60;;;;;;;;;;5015784;28;20045;-78
2024/04/02 12:49:10;;;;;;;1.95;0.50;;;;;;;;;;5057605;28;20067;-79
2024/04/02 12:51:37;;;;;;;1.45;0.47;;;;;;;;;;5058655;28;20074;-78
2024/04/02 12:54:04;;;;;;;0.50;0.40;;;;;;;;;;5052674;28;20087;-78
2024/04/02 12:56:30;;;;;;;4.03;0.40;;;;;;;;;;5056121;28;20112;-79
2024/04/02 12:58:57;;;;;;;2.35;0.60;;;;;;;;;;5056791;28;20025;-78
2024/04/02 13:01:23;;;;;;;3.13;1.17;;;;;;;;;;5040521;28;20056;-78
2024/04/02 13:03:49;;;;;;;0.70;0.57;;;;;;;;;;5039835;28;20101;-78
2024/04/02 13:06:16;;;;;;;1.13;0.47;;;;;;;;;;5051985;28;20151;-81
2024/04/02 13:08:44;;;;;;;1.00;0.50;;;;;;;;;;5038348;28;20053;-79
2024/04/02 13:11:11;;;;;;;0.82;0.55;;;;;;;;;;5020804;28;20026;-80
2024/04/02 13:13:39;;;;;;;1.75;0.65;;;;;;;;;;5051944;28;20079;-79
2024/04/02 13:16:21;;;;;;;2.40;0.40;;;;;;;;;;5040042;28;20033;-81
2024/04/02 13:18:48;;;;;;;0.55;0.30;;;;;;;;;;5041410;28;20097;-79
2024/04/02 13:21:18;;;;;;;1.08;0.45;;;;;;;;;;5039650;28;20024;-78
2024/04/02 13:23:45;;;;;;;1.80;0.30;;;;;;;;;;5057462;28;20064;-80
2024/04/02 13:26:12;;;;;;;1.02;0.43;;;;;;;;;;5022947;28;20037;-80
2024/04/02 13:28:41;;;;;;;0.47;0.43;;;;;;;;;;5043192;28;20365;-78
2024/04/02 13:31:08;;;;;;;2.25;0.40;;;;;;;;;;5008251;28;20053;-81
2024/04/02 13:33:35;;;;;;;1.25;0.50;;;;;;;;;;5037600;28;20048;-80
2024/04/02 13:36:08;;;;;;;4.78;0.50;;;;;;;;;;5019557;28;20037;-80
2024/04/02 13:38:34;;;;;;;1.35;0.30;;;;;;;;;;5044758;28;20029;-81
2024/04/02 13:41:04;;;;;;;0.88;0.30;;;;;;;;;;5042535;28;20075;-78
2024/04/02 13:43:30;;;;;;;2.65;0.40;;;;;;;;;;5044338;28;20081;-81
2024/04/02 13:46:02;;;;;;;0.20;0.20;;;;;;;;;;5043870;28;20037;-81
2024/04/02 13:48:29;;;;;;;0.98;0.30;;;;;;;;;;5039358;28;20032;-80
2024/04/02 13:51:13;;;;;;;0.75;0.20;;;;;;;;;;5015751;28;20018;-81
2024/04/02 13:53:40;;;;;;;0.68;0.30;;;;;;;;;;5040545;28;20484;-79
2024/04/02 13:56:07;;;;;;;2.20;0.40;;;;;;;;;;5031295;28;20457;-80
2024/04/02 13:58:37;;;;;;;0.98;0.38;;;;;;;;;;5036341;28;20033;-79
2024/04/02 14:01:04;;;;;;;1.50;0.40;;;;;;;;;;5039140;28;20113;-79
2024/04/02 14:03:30;;;;;;;1.95;0.20;;;;;;;;;;5034915;28;20160;-80
2024/04/02 14:05:57;;;;;;;0.63;0.52;;;;;;;;;;5012412;28;20029;-80
2024/04/02 14:08:23;;;;;;;0.65;0.28;;;;;;;;;;5030595;28;20017;-79
2024/04/02 14:10:50;;;;;;;0.57;0.47;;;;;;;;;;5036353;28;20049;-78
2024/04/02 14:13:17;;;;;;;0.93;0.70;;;;;;;;;;5026772;28;20029;-79
2024/04/02 14:15:44;;;;;;;1.27;0.40;;;;;;;;;;5022845;28;20030;-79
2024/04/02 14:18:10;;;;;;;0.28;0.10;;;;;;;;;;5020308;28;20457;-78
2024/04/02 14:20:37;;;;;;;0.93;0.43;;;;;;;;;;5037958;28;20507;-79
2024/04/02 14:23:03;;;;;;;1.17;0.50;;;;;;;;;;5038515;28;20029;-78
2024/04/02 14:25:31;;;;;;;1.55;0.30;;;;;;;;;;5039259;28;20022;-78
2024/04/02 14:27:57;;;;;;;0.70;0.40;;;;;;;;;;5021559;28;20034;-78
2024/04/02 14:30:23;;;;;;;0.95;0.40;;;;;;;;;;5031665;28;20349;-78
2024/04/02 14:32:50;;;;;;;2.30;0.30;;;;;;;;;;5021229;28;20045;-80
2024/04/02 14:35:16;;;;;;;1.23;0.30;;;;;;;;;;5020448;28;20053;-78
2024/04/02 14:37:42;;;;;;;0.50;0.40;;;;;;;;;;5009565;28;20082;-79
2024/04/02 14:40:09;;;;;;;1.30;0.43;;;;;;;;;;5044846;28;20029;-79
2024/04/02 14:42:35;;;;;;;1.70;0.30;;;;;;;;;;5039765;28;20033;-79
2024/04/02 14:45:01;;;;;;;0.95;0.20;;;;;;;;;;5037627;28;20716;-78
2024/04/02 14:47:27;;;;;;;0.25;0.25;;;;;;;;;;5038137;28;20147;-78
2024/04/02 14:49:54;;;;;;;2.40;0.45;;;;;;;;;;5017587;28;20025;-78